sensor_id;sensor_type;location;lat;lon;timestamp;P1;durP1;ratioP1;P2;durP2;ratioP2
27025;SDS011;14565;48.626;8.978;2023-05-14T00:00:48;16.67;;;12.88;;
27025;SDS011;14565;48.626;8.978;2023-05-14T00:03:14;15.85;;;13.35;;
27025;SDS011;14565;48.626;8.978;2023-05-14T00:05:40;18.45;;;13.45;;
27025;SDS011;14565;48.626;8.978;2023-05-14T00:08:05;14.60;;;12.32;;
27025;SDS011;14565;48.626;8.978;2023-05-14T00:10:31;15.55;;;12.38;;
27025;SDS011;14565;48.626;8.978;2023-05-14T00:12:57;14.63;;;11.85;;
27025;SDS011;14565;48.626;8.978;2023-05-14T00:15:23;16.45;;;12.25;;
27025;SDS011;14565;48.626;8.978;2023-05-14T00:17:48;17.80;;;13.13;;
27025;SDS011;14565;48.626;8.978;2023-05-14T00:20:14;14.02;;;11.05;;
27025;SDS011;14565;48.626;8.978;2023-05-14T00:22:40;15.50;;;12.10;;
27025;SDS011;14565;48.626;8.978;2023-05-14T00:25:06;15.25;;;12.68;;
27025;SDS011;14565;48.626;8.978;2023-05-14T00:27:33;14.75;;;12.80;;
27025;SDS011;14565;48.626;8.978;2023-05-14T00:29:59;16.70;;;12.20;;
27025;SDS011;14565;48.626;8.978;2023-05-14T00:32:24;16.55;;;12.57;;
27025;SDS011;14565;48.626;8.978;2023-05-14T00:34:50;17.20;;;12.77;;
27025;SDS011;14565;48.626;8.978;2023-05-14T00:37:16;16.88;;;12.50;;
27025;SDS011;14565;48.626;8.978;2023-05-14T00:39:41;13.45;;;11.75;;
27025;SDS011;14565;48.626;8.978;2023-05-14T00:42:07;15.48;;;13.25;;
27025;SDS011;14565;48.626;8.978;2023-05-14T00:44:33;17.17;;;14.30;;
27025;SDS011;14565;48.626;8.978;2023-05-14T00:46:59;17.58;;;12.65;;
27025;SDS011;14565;48.626;8.978;2023-05-14T00:49:25;19.27;;;14.48;;
27025;SDS011;14565;48.626;8.978;2023-05-14T00:51:51;16.85;;;13.75;;
27025;SDS011;14565;48.626;8.978;2023-05-14T00:54:17;16.42;;;12.95;;
27025;SDS011;14565;48.626;8.978;2023-05-14T00:56:44;16.33;;;13.88;;
27025;SDS011;14565;48.626;8.978;2023-05-14T00:59:11;15.02;;;12.40;;
27025;SDS011;14565;48.626;8.978;2023-05-14T01:01:37;19.88;;;12.75;;
27025;SDS011;14565;48.626;8.978;2023-05-14T01:04:03;19.42;;;13.73;;
27025;SDS011;14565;48.626;8.978;2023-05-14T01:14:48;14.35;;;12.63;;
27025;SDS011;14565;48.626;8.978;2023-05-14T01:17:16;19.05;;;14.40;;
27025;SDS011;14565;48.626;8.978;2023-05-14T01:19:46;16.80;;;13.00;;
27025;SDS011;14565;48.626;8.978;2023-05-14T01:22:12;17.30;;;14.35;;
27025;SDS011;14565;48.626;8.978;2023-05-14T01:24:38;19.42;;;15.18;;
27025;SDS011;14565;48.626;8.978;2023-05-14T01:27:20;21.38;;;14.10;;
27025;SDS011;14565;48.626;8.978;2023-05-14T01:32:32;20.48;;;15.02;;
27025;SDS011;14565;48.626;8.978;2023-05-14T01:34:58;16.30;;;14.02;;
27025;SDS011;14565;48.626;8.978;2023-05-14T01:37:26;17.63;;;15.18;;
27025;SDS011;14565;48.626;8.978;2023-05-14T01:39:54;19.35;;;15.40;;
27025;SDS011;14565;48.626;8.978;2023-05-14T01:42:20;18.02;;;14.65;;
27025;SDS011;14565;48.626;8.978;2023-05-14T01:44:46;18.50;;;13.75;;
27025;SDS011;14565;48.626;8.978;2023-05-14T01:47:12;20.40;;;14.70;;
27025;SDS011;14565;48.626;8.978;2023-05-14T01:49:38;18.63;;;14.95;;
27025;SDS011;14565;48.626;8.978;2023-05-14T01:52:04;19.98;;;15.27;;
27025;SDS011;14565;48.626;8.978;2023-05-14T01:54:30;16.60;;;13.55;;
27025;SDS011;14565;48.626;8.978;2023-05-14T01:56:55;18.52;;;13.95;;
27025;SDS011;14565;48.626;8.978;2023-05-14T01:59:21;19.35;;;15.00;;
27025;SDS011;14565;48.626;8.978;2023-05-14T02:01:46;17.42;;;14.65;;
27025;SDS011;14565;48.626;8.978;2023-05-14T02:04:12;18.20;;;15.32;;
27025;SDS011;14565;48.626;8.978;2023-05-14T02:06:38;17.55;;;14.25;;
27025;SDS011;14565;48.626;8.978;2023-05-14T02:09:03;18.13;;;14.73;;
27025;SDS011;14565;48.626;8.978;2023-05-14T02:11:29;17.95;;;14.18;;
27025;SDS011;14565;48.626;8.978;2023-05-14T02:13:55;16.50;;;13.70;;
27025;SDS011;14565;48.626;8.978;2023-05-14T02:16:20;19.48;;;14.73;;
27025;SDS011;14565;48.626;8.978;2023-05-14T02:18:46;20.30;;;15.40;;
27025;SDS011;14565;48.626;8.978;2023-05-14T02:21:12;20.48;;;15.75;;
27025;SDS011;14565;48.626;8.978;2023-05-14T02:23:37;17.88;;;14.20;;
27025;SDS011;14565;48.626;8.978;2023-05-14T02:26:03;19.40;;;15.80;;
27025;SDS011;14565;48.626;8.978;2023-05-14T02:28:29;16.55;;;13.68;;
27025;SDS011;14565;48.626;8.978;2023-05-14T02:30:58;19.52;;;14.18;;
27025;SDS011;14565;48.626;8.978;2023-05-14T02:33:24;19.48;;;14.27;;
27025;SDS011;14565;48.626;8.978;2023-05-14T02:35:50;23.73;;;17.35;;
27025;SDS011;14565;48.626;8.978;2023-05-14T02:38:15;21.02;;;17.00;;
27025;SDS011;14565;48.626;8.978;2023-05-14T02:40:41;21.60;;;17.17;;
27025;SDS011;14565;48.626;8.978;2023-05-14T02:43:06;22.42;;;17.83;;
27025;SDS011;14565;48.626;8.978;2023-05-14T02:45:32;25.48;;;17.35;;
27025;SDS011;14565;48.626;8.978;2023-05-14T02:47:58;22.08;;;15.82;;
27025;SDS011;14565;48.626;8.978;2023-05-14T02:50:23;23.02;;;17.73;;
27025;SDS011;14565;48.626;8.978;2023-05-14T02:52:49;23.13;;;17.65;;
27025;SDS011;14565;48.626;8.978;2023-05-14T02:55:14;24.05;;;17.63;;
27025;SDS011;14565;48.626;8.978;2023-05-14T02:57:40;21.67;;;16.92;;
27025;SDS011;14565;48.626;8.978;2023-05-14T03:00:06;23.27;;;17.63;;
27025;SDS011;14565;48.626;8.978;2023-05-14T03:02:33;23.88;;;18.52;;
27025;SDS011;14565;48.626;8.978;2023-05-14T03:04:59;23.67;;;17.75;;
27025;SDS011;14565;48.626;8.978;2023-05-14T03:07:25;23.13;;;18.35;;
27025;SDS011;14565;48.626;8.978;2023-05-14T03:09:51;24.83;;;18.83;;
27025;SDS011;14565;48.626;8.978;2023-05-14T03:12:16;22.98;;;17.95;;
27025;SDS011;14565;48.626;8.978;2023-05-14T03:14:42;24.42;;;17.33;;
27025;SDS011;14565;48.626;8.978;2023-05-14T03:17:08;23.55;;;18.58;;
27025;SDS011;14565;48.626;8.978;2023-05-14T03:19:34;22.38;;;17.20;;
27025;SDS011;14565;48.626;8.978;2023-05-14T03:21:59;23.25;;;17.75;;
27025;SDS011;14565;48.626;8.978;2023-05-14T03:24:25;24.13;;;18.45;;
27025;SDS011;14565;48.626;8.978;2023-05-14T03:26:51;27.33;;;19.13;;
27025;SDS011;14565;48.626;8.978;2023-05-14T03:29:17;24.13;;;17.10;;
27025;SDS011;14565;48.626;8.978;2023-05-14T03:31:43;23.55;;;16.20;;
27025;SDS011;14565;48.626;8.978;2023-05-14T03:34:09;21.10;;;17.08;;
27025;SDS011;14565;48.626;8.978;2023-05-14T03:36:35;28.20;;;18.20;;
27025;SDS011;14565;48.626;8.978;2023-05-14T03:39:02;21.95;;;17.08;;
27025;SDS011;14565;48.626;8.978;2023-05-14T03:41:30;23.15;;;17.65;;
27025;SDS011;14565;48.626;8.978;2023-05-14T03:43:56;20.35;;;16.05;;
27025;SDS011;14565;48.626;8.978;2023-05-14T03:46:22;24.35;;;17.00;;
27025;SDS011;14565;48.626;8.978;2023-05-14T03:48:48;20.33;;;15.80;;
27025;SDS011;14565;48.626;8.978;2023-05-14T03:51:13;22.10;;;16.17;;
27025;SDS011;14565;48.626;8.978;2023-05-14T03:53:39;20.23;;;15.93;;
27025;SDS011;14565;48.626;8.978;2023-05-14T03:56:05;18.30;;;15.13;;
27025;SDS011;14565;48.626;8.978;2023-05-14T03:58:31;19.40;;;15.52;;
27025;SDS011;14565;48.626;8.978;2023-05-14T04:00:56;18.38;;;15.00;;
27025;SDS011;14565;48.626;8.978;2023-05-14T04:03:22;16.90;;;13.93;;
27025;SDS011;14565;48.626;8.978;2023-05-14T04:05:47;17.90;;;15.05;;
27025;SDS011;14565;48.626;8.978;2023-05-14T04:08:14;17.70;;;14.48;;
27025;SDS011;14565;48.626;8.978;2023-05-14T04:10:41;19.20;;;15.45;;
27025;SDS011;14565;48.626;8.978;2023-05-14T04:13:06;20.05;;;15.77;;
27025;SDS011;14565;48.626;8.978;2023-05-14T04:15:32;19.60;;;15.55;;
27025;SDS011;14565;48.626;8.978;2023-05-14T04:17:59;20.50;;;14.05;;
27025;SDS011;14565;48.626;8.978;2023-05-14T04:20:25;17.63;;;15.23;;
27025;SDS011;14565;48.626;8.978;2023-05-14T04:22:51;19.88;;;15.32;;
27025;SDS011;14565;48.626;8.978;2023-05-14T04:25:17;20.25;;;16.00;;
27025;SDS011;14565;48.626;8.978;2023-05-14T04:27:46;20.33;;;15.50;;
27025;SDS011;14565;48.626;8.978;2023-05-14T04:30:14;18.23;;;14.52;;
27025;SDS011;14565;48.626;8.978;2023-05-14T04:32:40;18.20;;;15.02;;
27025;SDS011;14565;48.626;8.978;2023-05-14T04:35:06;20.98;;;16.25;;
27025;SDS011;14565;48.626;8.978;2023-05-14T04:37:33;21.45;;;16.48;;
27025;SDS011;14565;48.626;8.978;2023-05-14T04:39:58;19.17;;;15.70;;
27025;SDS011;14565;48.626;8.978;2023-05-14T04:42:24;19.52;;;15.57;;
27025;SDS011;14565;48.626;8.978;2023-05-14T04:44:50;18.77;;;14.75;;
27025;SDS011;14565;48.626;8.978;2023-05-14T04:47:16;20.00;;;14.93;;
27025;SDS011;14565;48.626;8.978;2023-05-14T04:49:42;18.00;;;14.10;;
27025;SDS011;14565;48.626;8.978;2023-05-14T04:52:07;18.55;;;14.57;;
27025;SDS011;14565;48.626;8.978;2023-05-14T04:54:33;18.27;;;14.35;;
27025;SDS011;14565;48.626;8.978;2023-05-14T04:56:58;18.27;;;14.30;;
27025;SDS011;14565;48.626;8.978;2023-05-14T04:59:27;19.40;;;15.35;;
27025;SDS011;14565;48.626;8.978;2023-05-14T05:01:53;18.23;;;14.63;;
27025;SDS011;14565;48.626;8.978;2023-05-14T05:04:19;19.13;;;14.68;;
27025;SDS011;14565;48.626;8.978;2023-05-14T05:06:45;17.67;;;13.10;;
27025;SDS011;14565;48.626;8.978;2023-05-14T05:09:10;17.65;;;13.80;;
27025;SDS011;14565;48.626;8.978;2023-05-14T05:11:36;19.52;;;15.07;;
27025;SDS011;14565;48.626;8.978;2023-05-14T05:14:02;20.50;;;15.10;;
27025;SDS011;14565;48.626;8.978;2023-05-14T05:16:28;16.45;;;13.95;;
27025;SDS011;14565;48.626;8.978;2023-05-14T05:18:54;18.65;;;14.45;;
27025;SDS011;14565;48.626;8.978;2023-05-14T05:21:20;19.02;;;14.90;;
27025;SDS011;14565;48.626;8.978;2023-05-14T05:23:45;19.67;;;15.73;;
27025;SDS011;14565;48.626;8.978;2023-05-14T05:26:11;17.80;;;14.80;;
27025;SDS011;14565;48.626;8.978;2023-05-14T05:28:36;16.33;;;14.35;;
27025;SDS011;14565;48.626;8.978;2023-05-14T05:31:02;16.67;;;13.98;;
27025;SDS011;14565;48.626;8.978;2023-05-14T05:33:28;17.90;;;14.15;;
27025;SDS011;14565;48.626;8.978;2023-05-14T05:35:53;17.05;;;14.55;;
27025;SDS011;14565;48.626;8.978;2023-05-14T05:38:19;19.13;;;14.40;;
27025;SDS011;14565;48.626;8.978;2023-05-14T05:40:47;18.73;;;14.40;;
27025;SDS011;14565;48.626;8.978;2023-05-14T05:43:13;19.85;;;14.75;;
27025;SDS011;14565;48.626;8.978;2023-05-14T05:45:39;17.30;;;14.25;;
27025;SDS011;14565;48.626;8.978;2023-05-14T05:48:05;21.27;;;14.75;;
27025;SDS011;14565;48.626;8.978;2023-05-14T05:50:31;19.13;;;15.57;;
27025;SDS011;14565;48.626;8.978;2023-05-14T05:52:56;17.45;;;15.18;;
27025;SDS011;14565;48.626;8.978;2023-05-14T05:55:25;18.83;;;16.05;;
27025;SDS011;14565;48.626;8.978;2023-05-14T05:57:50;18.95;;;16.27;;
27025;SDS011;14565;48.626;8.978;2023-05-14T06:00:16;24.55;;;16.98;;
27025;SDS011;14565;48.626;8.978;2023-05-14T06:02:42;21.27;;;16.45;;
27025;SDS011;14565;48.626;8.978;2023-05-14T06:05:10;19.75;;;16.58;;
27025;SDS011;14565;48.626;8.978;2023-05-14T06:07:36;19.92;;;16.30;;
27025;SDS011;14565;48.626;8.978;2023-05-14T06:10:02;20.83;;;17.63;;
27025;SDS011;14565;48.626;8.978;2023-05-14T06:12:28;25.63;;;18.63;;
27025;SDS011;14565;48.626;8.978;2023-05-14T06:14:54;22.63;;;18.00;;
27025;SDS011;14565;48.626;8.978;2023-05-14T06:17:21;25.55;;;19.55;;
27025;SDS011;14565;48.626;8.978;2023-05-14T06:19:48;22.17;;;17.70;;
27025;SDS011;14565;48.626;8.978;2023-05-14T06:22:13;25.23;;;18.23;;
27025;SDS011;14565;48.626;8.978;2023-05-14T06:24:39;25.48;;;19.52;;
27025;SDS011;14565;48.626;8.978;2023-05-14T06:27:04;23.10;;;18.83;;
27025;SDS011;14565;48.626;8.978;2023-05-14T06:29:30;24.25;;;18.92;;
27025;SDS011;14565;48.626;8.978;2023-05-14T06:31:59;22.90;;;18.25;;
27025;SDS011;14565;48.626;8.978;2023-05-14T06:34:26;22.95;;;17.42;;
27025;SDS011;14565;48.626;8.978;2023-05-14T06:36:51;24.10;;;17.90;;
27025;SDS011;14565;48.626;8.978;2023-05-14T06:39:17;25.52;;;18.45;;
27025;SDS011;14565;48.626;8.978;2023-05-14T06:41:43;26.48;;;20.15;;
27025;SDS011;14565;48.626;8.978;2023-05-14T06:44:08;24.25;;;18.92;;
27025;SDS011;14565;48.626;8.978;2023-05-14T06:46:35;24.23;;;18.25;;
27025;SDS011;14565;48.626;8.978;2023-05-14T06:49:00;24.17;;;19.10;;
27025;SDS011;14565;48.626;8.978;2023-05-14T06:51:26;25.08;;;18.63;;
27025;SDS011;14565;48.626;8.978;2023-05-14T06:53:53;25.55;;;19.27;;
27025;SDS011;14565;48.626;8.978;2023-05-14T06:56:20;25.73;;;19.80;;
27025;SDS011;14565;48.626;8.978;2023-05-14T06:58:46;26.65;;;18.95;;
27025;SDS011;14565;48.626;8.978;2023-05-14T07:01:12;24.63;;;18.42;;
27025;SDS011;14565;48.626;8.978;2023-05-14T07:03:38;24.85;;;20.42;;
27025;SDS011;14565;48.626;8.978;2023-05-14T07:06:03;22.70;;;18.13;;
27025;SDS011;14565;48.626;8.978;2023-05-14T07:08:30;23.20;;;19.25;;
27025;SDS011;14565;48.626;8.978;2023-05-14T07:11:02;23.45;;;17.45;;
27025;SDS011;14565;48.626;8.978;2023-05-14T07:13:28;21.13;;;17.25;;
27025;SDS011;14565;48.626;8.978;2023-05-14T07:15:54;22.77;;;17.48;;
27025;SDS011;14565;48.626;8.978;2023-05-14T07:18:20;25.52;;;17.83;;
27025;SDS011;14565;48.626;8.978;2023-05-14T07:20:47;20.05;;;17.00;;
27025;SDS011;14565;48.626;8.978;2023-05-14T07:23:12;18.77;;;14.80;;
27025;SDS011;14565;48.626;8.978;2023-05-14T07:25:38;20.35;;;15.55;;
27025;SDS011;14565;48.626;8.978;2023-05-14T07:28:04;19.15;;;14.77;;
27025;SDS011;14565;48.626;8.978;2023-05-14T07:30:29;17.85;;;14.48;;
27025;SDS011;14565;48.626;8.978;2023-05-14T07:32:55;18.45;;;14.52;;
27025;SDS011;14565;48.626;8.978;2023-05-14T07:35:21;18.27;;;14.52;;
27025;SDS011;14565;48.626;8.978;2023-05-14T07:37:47;17.50;;;14.55;;
27025;SDS011;14565;48.626;8.978;2023-05-14T07:40:13;18.05;;;14.70;;
27025;SDS011;14565;48.626;8.978;2023-05-14T07:42:39;17.98;;;14.95;;
27025;SDS011;14565;48.626;8.978;2023-05-14T07:45:04;19.45;;;15.05;;
27025;SDS011;14565;48.626;8.978;2023-05-14T07:47:31;18.80;;;15.85;;
27025;SDS011;14565;48.626;8.978;2023-05-14T07:49:56;17.13;;;14.82;;
27025;SDS011;14565;48.626;8.978;2023-05-14T07:52:23;16.45;;;14.20;;
27025;SDS011;14565;48.626;8.978;2023-05-14T07:54:49;19.13;;;14.25;;
27025;SDS011;14565;48.626;8.978;2023-05-14T07:57:15;18.15;;;13.93;;
27025;SDS011;14565;48.626;8.978;2023-05-14T07:59:41;18.02;;;13.98;;
27025;SDS011;14565;48.626;8.978;2023-05-14T08:02:07;18.45;;;15.02;;
27025;SDS011;14565;48.626;8.978;2023-05-14T08:04:34;17.20;;;15.27;;
27025;SDS011;14565;48.626;8.978;2023-05-14T08:07:00;19.33;;;15.88;;
27025;SDS011;14565;48.626;8.978;2023-05-14T08:09:25;18.55;;;14.95;;
27025;SDS011;14565;48.626;8.978;2023-05-14T08:11:51;18.52;;;14.40;;
27025;SDS011;14565;48.626;8.978;2023-05-14T08:14:17;21.45;;;15.85;;
27025;SDS011;14565;48.626;8.978;2023-05-14T08:16:42;18.90;;;16.02;;
27025;SDS011;14565;48.626;8.978;2023-05-14T08:19:08;17.65;;;14.73;;
27025;SDS011;14565;48.626;8.978;2023-05-14T08:21:34;15.48;;;13.63;;
27025;SDS011;14565;48.626;8.978;2023-05-14T08:23:59;15.73;;;13.48;;
27025;SDS011;14565;48.626;8.978;2023-05-14T08:26:25;15.27;;;13.18;;
27025;SDS011;14565;48.626;8.978;2023-05-14T08:28:51;15.93;;;12.98;;
27025;SDS011;14565;48.626;8.978;2023-05-14T08:31:18;16.20;;;13.20;;
27025;SDS011;14565;48.626;8.978;2023-05-14T08:33:43;15.63;;;13.82;;
27025;SDS011;14565;48.626;8.978;2023-05-14T08:36:09;16.27;;;14.40;;
27025;SDS011;14565;48.626;8.978;2023-05-14T08:38:35;16.13;;;14.43;;
27025;SDS011;14565;48.626;8.978;2023-05-14T08:41:00;17.02;;;12.95;;
27025;SDS011;14565;48.626;8.978;2023-05-14T08:43:30;16.20;;;13.80;;
27025;SDS011;14565;48.626;8.978;2023-05-14T08:48:46;14.23;;;11.10;;
27025;SDS011;14565;48.626;8.978;2023-05-14T08:51:15;15.10;;;11.55;;
27025;SDS011;14565;48.626;8.978;2023-05-14T08:53:41;13.30;;;10.88;;
27025;SDS011;14565;48.626;8.978;2023-05-14T08:56:07;15.18;;;11.50;;
27025;SDS011;14565;48.626;8.978;2023-05-14T08:58:34;17.95;;;12.63;;
27025;SDS011;14565;48.626;8.978;2023-05-14T09:00:59;14.98;;;12.20;;
27025;SDS011;14565;48.626;8.978;2023-05-14T09:03:25;13.57;;;11.55;;
27025;SDS011;14565;48.626;8.978;2023-05-14T09:05:51;16.38;;;11.65;;
27025;SDS011;14565;48.626;8.978;2023-05-14T09:08:22;14.77;;;11.25;;
27025;SDS011;14565;48.626;8.978;2023-05-14T09:10:48;12.85;;;10.95;;
27025;SDS011;14565;48.626;8.978;2023-05-14T09:13:16;14.07;;;11.70;;
27025;SDS011;14565;48.626;8.978;2023-05-14T09:15:42;15.07;;;10.80;;
27025;SDS011;14565;48.626;8.978;2023-05-14T09:18:07;12.88;;;10.20;;
27025;SDS011;14565;48.626;8.978;2023-05-14T09:20:34;12.40;;;9.80;;
27025;SDS011;14565;48.626;8.978;2023-05-14T09:23:00;15.45;;;10.93;;
27025;SDS011;14565;48.626;8.978;2023-05-14T09:25:26;9.95;;;8.93;;
27025;SDS011;14565;48.626;8.978;2023-05-14T09:27:52;13.27;;;10.25;;
27025;SDS011;14565;48.626;8.978;2023-05-14T09:30:19;12.70;;;10.00;;
27025;SDS011;14565;48.626;8.978;2023-05-14T09:32:44;11.57;;;9.50;;
27025;SDS011;14565;48.626;8.978;2023-05-14T09:35:15;11.23;;;9.60;;
27025;SDS011;14565;48.626;8.978;2023-05-14T09:37:43;12.23;;;10.32;;
27025;SDS011;14565;48.626;8.978;2023-05-14T09:40:10;9.70;;;8.65;;
27025;SDS011;14565;48.626;8.978;2023-05-14T09:42:37;11.65;;;10.35;;
27025;SDS011;14565;48.626;8.978;2023-05-14T09:45:03;13.73;;;9.98;;
27025;SDS011;14565;48.626;8.978;2023-05-14T09:47:30;12.32;;;10.23;;
27025;SDS011;14565;48.626;8.978;2023-05-14T09:49:56;12.45;;;9.63;;
27025;SDS011;14565;48.626;8.978;2023-05-14T09:52:23;10.82;;;9.43;;
27025;SDS011;14565;48.626;8.978;2023-05-14T09:54:49;10.77;;;9.65;;
27025;SDS011;14565;48.626;8.978;2023-05-14T09:57:16;11.20;;;9.60;;
27025;SDS011;14565;48.626;8.978;2023-05-14T09:59:42;13.00;;;9.40;;
27025;SDS011;14565;48.626;8.978;2023-05-14T10:02:10;11.68;;;9.70;;
27025;SDS011;14565;48.626;8.978;2023-05-14T10:04:45;10.60;;;8.70;;
27025;SDS011;14565;48.626;8.978;2023-05-14T10:07:11;9.07;;;7.80;;
27025;SDS011;14565;48.626;8.978;2023-05-14T10:09:38;9.43;;;7.95;;
27025;SDS011;14565;48.626;8.978;2023-05-14T10:12:06;12.65;;;11.38;;
27025;SDS011;14565;48.626;8.978;2023-05-14T10:14:35;11.20;;;7.80;;
27025;SDS011;14565;48.626;8.978;2023-05-14T10:17:11;9.68;;;8.32;;
27025;SDS011;14565;48.626;8.978;2023-05-14T10:19:42;9.27;;;7.35;;
27025;SDS011;14565;48.626;8.978;2023-05-14T10:22:13;10.30;;;8.35;;
27025;SDS011;14565;48.626;8.978;2023-05-14T10:24:42;8.82;;;7.82;;
27025;SDS011;14565;48.626;8.978;2023-05-14T10:27:09;11.17;;;7.43;;
27025;SDS011;14565;48.626;8.978;2023-05-14T10:29:36;8.27;;;6.45;;
27025;SDS011;14565;48.626;8.978;2023-05-14T10:32:06;7.35;;;6.38;;
27025;SDS011;14565;48.626;8.978;2023-05-14T10:42:23;7.10;;;6.40;;
27025;SDS011;14565;48.626;8.978;2023-05-14T10:44:54;11.30;;;7.82;;
27025;SDS011;14565;48.626;8.978;2023-05-14T10:47:29;11.95;;;9.00;;
27025;SDS011;14565;48.626;8.978;2023-05-14T10:50:00;9.57;;;7.60;;
27025;SDS011;14565;48.626;8.978;2023-05-14T10:52:28;7.90;;;7.10;;
27025;SDS011;14565;48.626;8.978;2023-05-14T10:57:22;7.82;;;6.28;;
27025;SDS011;14565;48.626;8.978;2023-05-14T10:59:53;8.93;;;6.40;;
27025;SDS011;14565;48.626;8.978;2023-05-14T11:04:54;9.13;;;5.78;;
27025;SDS011;14565;48.626;8.978;2023-05-14T11:07:35;7.75;;;6.13;;
27025;SDS011;14565;48.626;8.978;2023-05-14T11:12:27;8.73;;;7.47;;
27025;SDS011;14565;48.626;8.978;2023-05-14T11:14:57;7.20;;;6.22;;
27025;SDS011;14565;48.626;8.978;2023-05-14T11:17:27;8.23;;;6.68;;
27025;SDS011;14565;48.626;8.978;2023-05-14T11:19:54;8.95;;;6.60;;
27025;SDS011;14565;48.626;8.978;2023-05-14T11:22:20;6.80;;;6.10;;
27025;SDS011;14565;48.626;8.978;2023-05-14T11:24:47;7.18;;;5.80;;
27025;SDS011;14565;48.626;8.978;2023-05-14T11:27:12;9.02;;;6.47;;
27025;SDS011;14565;48.626;8.978;2023-05-14T11:29:42;7.05;;;6.20;;
27025;SDS011;14565;48.626;8.978;2023-05-14T11:32:10;7.53;;;6.82;;
27025;SDS011;14565;48.626;8.978;2023-05-14T11:34:36;10.95;;;6.82;;
27025;SDS011;14565;48.626;8.978;2023-05-14T11:37:02;8.05;;;5.63;;
27025;SDS011;14565;48.626;8.978;2023-05-14T11:39:29;7.50;;;5.63;;
27025;SDS011;14565;48.626;8.978;2023-05-14T11:41:57;7.15;;;5.82;;
27025;SDS011;14565;48.626;8.978;2023-05-14T11:44:50;7.65;;;5.63;;
27025;SDS011;14565;48.626;8.978;2023-05-14T11:47:16;8.90;;;5.53;;
27025;SDS011;14565;48.626;8.978;2023-05-14T11:49:44;6.03;;;5.40;;
27025;SDS011;14565;48.626;8.978;2023-05-14T11:52:10;5.65;;;5.05;;
27025;SDS011;14565;48.626;8.978;2023-05-14T11:54:41;5.45;;;4.90;;
27025;SDS011;14565;48.626;8.978;2023-05-14T11:57:11;6.88;;;4.95;;
27025;SDS011;14565;48.626;8.978;2023-05-14T11:59:42;6.63;;;4.15;;
27025;SDS011;14565;48.626;8.978;2023-05-14T12:02:11;7.47;;;4.93;;
27025;SDS011;14565;48.626;8.978;2023-05-14T12:04:44;6.60;;;5.50;;
27025;SDS011;14565;48.626;8.978;2023-05-14T12:07:15;5.75;;;5.15;;
27025;SDS011;14565;48.626;8.978;2023-05-14T12:09:45;6.63;;;5.00;;
27025;SDS011;14565;48.626;8.978;2023-05-14T12:12:18;8.77;;;5.22;;
27025;SDS011;14565;48.626;8.978;2023-05-14T12:14:45;7.13;;;5.40;;
27025;SDS011;14565;48.626;8.978;2023-05-14T12:17:18;5.90;;;5.20;;
27025;SDS011;14565;48.626;8.978;2023-05-14T12:19:56;7.35;;;5.50;;
27025;SDS011;14565;48.626;8.978;2023-05-14T12:22:23;12.98;;;6.75;;
27025;SDS011;14565;48.626;8.978;2023-05-14T12:24:55;10.80;;;9.07;;
27025;SDS011;14565;48.626;8.978;2023-05-14T12:27:27;17.40;;;10.25;;
27025;SDS011;14565;48.626;8.978;2023-05-14T12:30:00;25.02;;;13.95;;
27025;SDS011;14565;48.626;8.978;2023-05-14T12:32:27;22.75;;;15.95;;
27025;SDS011;14565;48.626;8.978;2023-05-14T12:35:03;23.33;;;17.08;;
27025;SDS011;14565;48.626;8.978;2023-05-14T12:38:07;22.85;;;17.13;;
27025;SDS011;14565;48.626;8.978;2023-05-14T12:41:11;21.85;;;17.27;;
27025;SDS011;14565;48.626;8.978;2023-05-14T12:43:43;23.45;;;17.52;;
27025;SDS011;14565;48.626;8.978;2023-05-14T12:46:11;22.90;;;19.00;;
27025;SDS011;14565;48.626;8.978;2023-05-14T12:48:37;23.80;;;17.55;;
27025;SDS011;14565;48.626;8.978;2023-05-14T12:51:07;20.33;;;15.95;;
27025;SDS011;14565;48.626;8.978;2023-05-14T12:53:33;17.88;;;14.27;;
27025;SDS011;14565;48.626;8.978;2023-05-14T12:55:59;11.50;;;9.38;;
27025;SDS011;14565;48.626;8.978;2023-05-14T12:58:27;9.65;;;7.50;;
27025;SDS011;14565;48.626;8.978;2023-05-14T13:01:00;9.48;;;8.50;;
27025;SDS011;14565;48.626;8.978;2023-05-14T13:03:25;11.50;;;10.10;;
27025;SDS011;14565;48.626;8.978;2023-05-14T13:05:59;13.65;;;11.38;;
27025;SDS011;14565;48.626;8.978;2023-05-14T13:08:27;12.52;;;10.93;;
27025;SDS011;14565;48.626;8.978;2023-05-14T13:10:53;14.45;;;10.70;;
27025;SDS011;14565;48.626;8.978;2023-05-14T13:13:20;13.52;;;10.32;;
27025;SDS011;14565;48.626;8.978;2023-05-14T13:15:46;16.98;;;10.45;;
27025;SDS011;14565;48.626;8.978;2023-05-14T13:18:12;11.90;;;10.30;;
27025;SDS011;14565;48.626;8.978;2023-05-14T13:20:45;12.30;;;9.85;;
27025;SDS011;14565;48.626;8.978;2023-05-14T13:23:11;12.70;;;9.65;;
27025;SDS011;14565;48.626;8.978;2023-05-14T13:25:37;10.75;;;8.48;;
27025;SDS011;14565;48.626;8.978;2023-05-14T13:28:05;9.20;;;8.30;;
27025;SDS011;14565;48.626;8.978;2023-05-14T13:30:31;9.55;;;8.18;;
27025;SDS011;14565;48.626;8.978;2023-05-14T13:32:58;10.85;;;8.52;;
27025;SDS011;14565;48.626;8.978;2023-05-14T13:35:23;11.75;;;9.85;;
27025;SDS011;14565;48.626;8.978;2023-05-14T13:37:49;11.80;;;8.93;;
27025;SDS011;14565;48.626;8.978;2023-05-14T13:40:15;11.98;;;8.85;;
27025;SDS011;14565;48.626;8.978;2023-05-14T13:42:41;9.07;;;8.18;;
27025;SDS011;14565;48.626;8.978;2023-05-14T13:45:07;11.32;;;8.65;;
27025;SDS011;14565;48.626;8.978;2023-05-14T13:47:33;9.93;;;8.70;;
27025;SDS011;14565;48.626;8.978;2023-05-14T13:50:02;9.13;;;7.57;;
27025;SDS011;14565;48.626;8.978;2023-05-14T13:52:28;10.55;;;7.88;;
27025;SDS011;14565;48.626;8.978;2023-05-14T13:54:54;8.80;;;7.25;;
27025;SDS011;14565;48.626;8.978;2023-05-14T13:57:20;9.43;;;6.60;;
27025;SDS011;14565;48.626;8.978;2023-05-14T13:59:46;8.05;;;6.68;;
27025;SDS011;14565;48.626;8.978;2023-05-14T14:02:13;11.43;;;7.60;;
27025;SDS011;14565;48.626;8.978;2023-05-14T14:04:39;8.00;;;7.20;;
27025;SDS011;14565;48.626;8.978;2023-05-14T14:07:04;7.03;;;6.25;;
27025;SDS011;14565;48.626;8.978;2023-05-14T14:09:30;8.52;;;7.22;;
27025;SDS011;14565;48.626;8.978;2023-05-14T14:12:02;8.85;;;6.90;;
27025;SDS011;14565;48.626;8.978;2023-05-14T14:14:28;6.45;;;5.80;;
27025;SDS011;14565;48.626;8.978;2023-05-14T14:16:54;7.13;;;6.10;;
27025;SDS011;14565;48.626;8.978;2023-05-14T14:19:19;7.75;;;6.15;;
27025;SDS011;14565;48.626;8.978;2023-05-14T14:21:45;5.90;;;5.30;;
27025;SDS011;14565;48.626;8.978;2023-05-14T14:24:11;6.95;;;5.43;;
27025;SDS011;14565;48.626;8.978;2023-05-14T14:26:36;6.88;;;5.75;;
27025;SDS011;14565;48.626;8.978;2023-05-14T14:29:02;6.20;;;5.60;;
27025;SDS011;14565;48.626;8.978;2023-05-14T14:31:28;5.88;;;5.20;;
27025;SDS011;14565;48.626;8.978;2023-05-14T14:33:53;6.35;;;5.50;;
27025;SDS011;14565;48.626;8.978;2023-05-14T14:36:19;6.70;;;5.15;;
27025;SDS011;14565;48.626;8.978;2023-05-14T14:38:45;6.55;;;5.00;;
27025;SDS011;14565;48.626;8.978;2023-05-14T14:41:13;5.45;;;4.95;;
27025;SDS011;14565;48.626;8.978;2023-05-14T14:43:39;8.27;;;5.78;;
27025;SDS011;14565;48.626;8.978;2023-05-14T14:46:05;6.65;;;4.88;;
27025;SDS011;14565;48.626;8.978;2023-05-14T14:48:33;5.43;;;4.93;;
27025;SDS011;14565;48.626;8.978;2023-05-14T14:51:03;7.93;;;5.35;;
27025;SDS011;14565;48.626;8.978;2023-05-14T14:53:30;5.70;;;5.03;;
27025;SDS011;14565;48.626;8.978;2023-05-14T14:55:56;5.63;;;4.78;;